Date,TemperatureHighF,TemperatureAvgF,TemperatureLowF,DewpointHighF,DewpointAvgF,DewpointLowF,HumidityHigh,HumidityAvg,HumidityLow,PressureMaxIn,PressureMinIn,WindSpeedMaxMPH,WindSpeedAvgMPH,GustSpeedMaxMPH,PrecipitationSumIn
2013-6-1,82,70,62,68,60,48,97,75,31,28.85,28.70,18,4,18,0.43
2013-6-2,75,62,53,62,50,37,96,67,35,28.97,28.73,12,3,14,0.04
2013-6-3,83,59,46,46,36,18,89,50,13,29.09,28.94,7,1,10,0.00
2013-6-4,82,65,46,61,34,22,90,38,14,29.12,29.03,10,3,11,0.00
2013-6-5,91,69,55,45,33,25,60,30,12,29.06,28.79,8,3,12,0.00
2013-6-6,84,65,58,55,46,34,91,56,19,28.85,28.76,9,2,11,0.04
2013-6-7,84,65,54,58,45,31,92,56,16,28.91,28.79,7,1,8,0.04
2013-6-8,88,70,54,55,44,26,84,47,13,29.00,28.85,9,2,9,0.04
2013-6-9,92,73,62,64,53,30,87,58,12,29.00,28.73,9,2,14,0.43
2013-6-10,83,70,64,68,60,39,97,77,23,28.88,28.73,12,2,18,0.43
2013-6-11,91,73,63,67,60,36,97,72,15,28.91,28.76,9,2,14,0.12
2013-6-12,95,76,66,73,63,48,97,73,20,28.88,28.56,12,2,15,1.65
2013-6-13,83,67,58,69,51,34,97,64,20,28.97,28.56,12,2,12,1.73
2013-6-14,93,70,57,69,47,27,96,52,11,29.06,28.91,5,0,7,0.00
2013-6-15,86,69,59,67,55,38,96,65,19,29.06,28.88,12,1,18,0.04
2013-6-16,87,72,66,67,61,50,96,71,28,28.91,28.88,15,3,15,0.04
2013-6-17,93,76,66,69,56,35,96,59,14,28.91,28.82,7,1,9,0.00
2013-6-18,92,66,56,72,54,30,94,70,12,29.06,28.82,7,2,9,0.00
2013-6-19,91,69,56,57,41,27,89,43,12,29.12,28.97,9,2,10,0.00
2013-6-20,98,75,58,55,44,30,73,39,10,29.15,29.06,7,1,10,0.00
2013-6-21,95,77,64,62,50,30,71,45,11,29.15,28.97,10,0,12,0.00
2013-6-22,96,75,68,66,61,44,90,66,17,29.09,28.97,9,1,12,0.00
2013-6-23,94,74,68,70,63,40,96,77,16,29.06,28.97,10,1,13,0.43
2013-6-24,97,77,68,74,61,41,96,68,16,29.06,28.94,10,2,12,0.04
2013-6-25,96,78,68,70,61,43,95,62,17,28.97,28.82,13,2,17,0.04
2013-6-26,93,76,68,75,64,53,94,70,28,28.88,28.70,13,1,13,0.55
2013-6-27,92,77,70,73,62,50,97,65,24,28.73,28.61,10,2,12,0.31
2013-6-28,88,71,63,70,60,40,97,76,20,28.64,28.53,11,2,15,0.47
2013-6-29,85,69,63,67,60,45,97,77,26,28.70,28.53,12,1,13,0.87
2013-6-30,87,69,62,70,58,39,97,70,19,28.85,28.64,10,1,12,0.91